sensor_id;sensor_type;location;lat;lon;timestamp;pressure;altitude;pressure_sealevel;temperature;humidity
56737;BME280;42618;51.226;4.910;2023-07-13T00:01:54;49581.47;;;-146.94;68.13
56737;BME280;42618;51.226;4.910;2023-07-13T00:04:23;49527.66;;;-146.94;68.57
56737;BME280;42618;51.226;4.910;2023-07-13T00:06:51;49555.56;;;-146.94;68.70
56737;BME280;42618;51.226;4.910;2023-07-13T00:09:19;49555.56;;;-146.94;69.27
56737;BME280;42618;51.226;4.910;2023-07-13T00:11:51;49539.63;;;-146.94;69.51
56737;BME280;42618;51.226;4.910;2023-07-13T00:14:19;49579.47;;;-146.94;70.09
56737;BME280;42618;51.226;4.910;2023-07-13T00:16:46;49517.69;;;-146.94;70.90
56737;BME280;42618;51.226;4.910;2023-07-13T00:19:13;49531.63;;;-146.94;70.99
56737;BME280;42618;51.226;4.910;2023-07-13T00:21:41;49551.56;;;-146.94;71.38
56737;BME280;42618;51.226;4.910;2023-07-13T00:24:11;49511.72;;;-146.94;71.24
56737;BME280;42618;51.226;4.910;2023-07-13T00:26:42;49579.47;;;-146.94;71.68
56737;BME280;42618;51.226;4.910;2023-07-13T00:29:12;49541.59;;;-146.94;71.73
56737;BME280;42618;51.226;4.910;2023-07-13T00:31:40;49567.53;;;-146.94;72.53
56737;BME280;42618;51.226;4.910;2023-07-13T00:34:07;49531.63;;;-146.94;72.92
56737;BME280;42618;51.226;4.910;2023-07-13T00:36:34;49595.44;;;-146.94;73.00
56737;BME280;42618;51.226;4.910;2023-07-13T00:39:01;49561.53;;;-146.94;72.91
56737;BME280;42618;51.226;4.910;2023-07-13T00:41:28;49553.56;;;-146.94;72.89
56737;BME280;42618;51.226;4.910;2023-07-13T00:43:55;49591.44;;;-146.94;72.93
56737;BME280;42618;51.226;4.910;2023-07-13T00:46:28;49575.50;;;-146.94;72.71
56737;BME280;42618;51.226;4.910;2023-07-13T00:48:58;49579.47;;;-146.94;72.70
56737;BME280;42618;51.226;4.910;2023-07-13T00:51:31;49533.63;;;-146.94;72.90
56737;BME280;42618;51.226;4.910;2023-07-13T00:54:01;49557.56;;;-146.94;72.90
56737;BME280;42618;51.226;4.910;2023-07-13T00:56:30;49555.56;;;-146.94;73.57
56737;BME280;42618;51.226;4.910;2023-07-13T00:58:59;49571.50;;;-146.94;72.92
56737;BME280;42618;51.226;4.910;2023-07-13T01:01:27;49547.59;;;-146.94;73.42
56737;BME280;42618;51.226;4.910;2023-07-13T01:03:54;49551.56;;;-146.94;74.38
56737;BME280;42618;51.226;4.910;2023-07-13T01:06:21;49567.53;;;-146.94;74.27
56737;BME280;42618;51.226;4.910;2023-07-13T01:08:48;49585.47;;;-146.94;75.27
56737;BME280;42618;51.226;4.910;2023-07-13T01:11:19;49555.56;;;-146.94;75.70
56737;BME280;42618;51.226;4.910;2023-07-13T01:13:48;49561.53;;;-146.94;75.47
56737;BME280;42618;51.226;4.910;2023-07-13T01:16:22;49595.44;;;-146.94;75.70
56737;BME280;42618;51.226;4.910;2023-07-13T01:18:50;49583.47;;;-146.94;75.71
56737;BME280;42618;51.226;4.910;2023-07-13T01:21:17;49575.50;;;-146.94;76.64
56737;BME280;42618;51.226;4.910;2023-07-13T01:23:45;49575.50;;;-146.94;76.67
56737;BME280;42618;51.226;4.910;2023-07-13T01:26:13;49589.44;;;-146.94;76.89
56737;BME280;42618;51.226;4.910;2023-07-13T01:28:40;49563.53;;;-146.94;77.35
56737;BME280;42618;51.226;4.910;2023-07-13T01:31:07;49579.47;;;-146.94;77.79
56737;BME280;42618;51.226;4.910;2023-07-13T01:33:36;49563.53;;;-146.94;77.72
56737;BME280;42618;51.226;4.910;2023-07-13T01:36:03;49551.56;;;-146.94;78.55
56737;BME280;42618;51.226;4.910;2023-07-13T01:38:29;49575.50;;;-146.94;78.08
56737;BME280;42618;51.226;4.910;2023-07-13T01:40:56;49551.56;;;-146.94;78.82
56737;BME280;42618;51.226;4.910;2023-07-13T01:43:24;49587.47;;;-146.94;78.76
56737;BME280;42618;51.226;4.910;2023-07-13T01:45:51;49559.56;;;-146.94;78.69
56737;BME280;42618;51.226;4.910;2023-07-13T01:48:18;49633.31;;;-146.94;78.93
56737;BME280;42618;51.226;4.910;2023-07-13T01:50:47;49575.50;;;-146.94;79.52
56737;BME280;42618;51.226;4.910;2023-07-13T01:53:14;49583.47;;;-146.94;79.54
56737;BME280;42618;51.226;4.910;2023-07-13T01:55:41;49551.56;;;-146.94;79.01
56737;BME280;42618;51.226;4.910;2023-07-13T01:58:08;49581.47;;;-146.94;80.37
56737;BME280;42618;51.226;4.910;2023-07-13T02:00:35;49559.56;;;-146.94;79.86
56737;BME280;42618;51.226;4.910;2023-07-13T02:03:01;49559.56;;;-146.94;80.44
56737;BME280;42618;51.226;4.910;2023-07-13T02:05:31;49559.56;;;-146.94;80.47
56737;BME280;42618;51.226;4.910;2023-07-13T02:07:58;49549.59;;;-146.94;80.85
56737;BME280;42618;51.226;4.910;2023-07-13T02:10:25;49587.47;;;-146.94;80.44
56737;BME280;42618;51.226;4.910;2023-07-13T02:12:52;49563.53;;;-146.94;80.92
56737;BME280;42618;51.226;4.910;2023-07-13T02:15:18;49571.50;;;-146.94;81.37
56737;BME280;42618;51.226;4.910;2023-07-13T02:17:46;49581.47;;;-146.94;80.50
56737;BME280;42618;51.226;4.910;2023-07-13T02:20:13;49579.47;;;-146.94;81.25
56737;BME280;42618;51.226;4.910;2023-07-13T02:22:40;49595.44;;;-146.94;81.33
56737;BME280;42618;51.226;4.910;2023-07-13T02:25:07;49575.50;;;-146.94;80.77
56737;BME280;42618;51.226;4.910;2023-07-13T02:27:33;49595.44;;;-146.94;80.49
56737;BME280;42618;51.226;4.910;2023-07-13T02:30:00;49591.44;;;-146.94;80.53
56737;BME280;42618;51.226;4.910;2023-07-13T02:32:27;49585.47;;;-146.94;80.52
56737;BME280;42618;51.226;4.910;2023-07-13T02:34:54;49571.50;;;-146.94;80.72
56737;BME280;42618;51.226;4.910;2023-07-13T02:37:21;49591.44;;;-146.94;80.72
56737;BME280;42618;51.226;4.910;2023-07-13T02:39:48;49575.50;;;-146.94;81.08
56737;BME280;42618;51.226;4.910;2023-07-13T02:42:14;49583.47;;;-146.94;81.20
56737;BME280;42618;51.226;4.910;2023-07-13T02:44:43;49535.63;;;-146.94;80.79
56737;BME280;42618;51.226;4.910;2023-07-13T02:47:10;49587.47;;;-146.94;80.75
56737;BME280;42618;51.226;4.910;2023-07-13T02:49:37;49541.59;;;-146.94;80.02
56737;BME280;42618;51.226;4.910;2023-07-13T02:52:05;49591.44;;;-146.94;80.73
56737;BME280;42618;51.226;4.910;2023-07-13T02:54:31;49563.53;;;-146.94;80.47
56737;BME280;42618;51.226;4.910;2023-07-13T02:56:58;49571.50;;;-146.94;80.60
56737;BME280;42618;51.226;4.910;2023-07-13T02:59:25;49555.56;;;-146.94;80.72
56737;BME280;42618;51.226;4.910;2023-07-13T03:01:52;49567.53;;;-146.94;81.21
56737;BME280;42618;51.226;4.910;2023-07-13T03:04:19;49599.41;;;-146.94;81.47
56737;BME280;42618;51.226;4.910;2023-07-13T03:06:46;49565.53;;;-146.94;81.15
56737;BME280;42618;51.226;4.910;2023-07-13T03:09:14;49583.47;;;-146.94;80.86
56737;BME280;42618;51.226;4.910;2023-07-13T03:11:46;49587.47;;;-146.94;80.91
56737;BME280;42618;51.226;4.910;2023-07-13T03:14:23;49595.44;;;-146.94;81.43
56737;BME280;42618;51.226;4.910;2023-07-13T03:16:50;49549.59;;;-146.94;81.28
56737;BME280;42618;51.226;4.910;2023-07-13T03:19:20;49561.53;;;-146.94;80.53
56737;BME280;42618;51.226;4.910;2023-07-13T03:21:49;49599.41;;;-146.94;80.07
56737;BME280;42618;51.226;4.910;2023-07-13T03:24:16;49563.53;;;-146.94;80.93
56737;BME280;42618;51.226;4.910;2023-07-13T03:26:43;49535.63;;;-146.94;80.46
56737;BME280;42618;51.226;4.910;2023-07-13T03:29:10;49587.47;;;-146.94;80.98
56737;BME280;42618;51.226;4.910;2023-07-13T03:31:37;49587.47;;;-146.94;81.11
56737;BME280;42618;51.226;4.910;2023-07-13T03:34:04;49591.44;;;-146.94;81.43
56737;BME280;42618;51.226;4.910;2023-07-13T03:36:32;49551.56;;;-146.94;80.99
56737;BME280;42618;51.226;4.910;2023-07-13T03:39:04;49611.38;;;-146.94;81.35
56737;BME280;42618;51.226;4.910;2023-07-13T03:41:39;49599.41;;;-146.94;81.81
56737;BME280;42618;51.226;4.910;2023-07-13T03:44:06;49593.44;;;-146.94;82.44
56737;BME280;42618;51.226;4.910;2023-07-13T03:46:33;49575.50;;;-146.94;82.64
56737;BME280;42618;51.226;4.910;2023-07-13T03:49:01;49603.41;;;-146.94;83.39
56737;BME280;42618;51.226;4.910;2023-07-13T03:51:28;49563.53;;;-146.94;82.91
56737;BME280;42618;51.226;4.910;2023-07-13T03:53:54;49577.50;;;-146.94;82.84
56737;BME280;42618;51.226;4.910;2023-07-13T03:56:21;49585.47;;;-146.94;82.74
56737;BME280;42618;51.226;4.910;2023-07-13T03:58:49;49599.41;;;-146.94;82.53
56737;BME280;42618;51.226;4.910;2023-07-13T04:01:20;49583.47;;;-146.94;83.22
56737;BME280;42618;51.226;4.910;2023-07-13T04:03:48;49555.56;;;-146.94;81.85
56737;BME280;42618;51.226;4.910;2023-07-13T04:06:25;49577.50;;;-146.94;81.25
56737;BME280;42618;51.226;4.910;2023-07-13T04:08:54;49577.50;;;-146.94;81.43
56737;BME280;42618;51.226;4.910;2023-07-13T04:11:23;49575.50;;;-146.94;80.26
56737;BME280;42618;51.226;4.910;2023-07-13T04:13:50;49603.41;;;-146.94;80.34
56737;BME280;42618;51.226;4.910;2023-07-13T04:16:18;49603.41;;;-146.94;81.61
56737;BME280;42618;51.226;4.910;2023-07-13T04:18:46;49563.53;;;-146.94;81.88
56737;BME280;42618;51.226;4.910;2023-07-13T04:21:14;49553.56;;;-146.94;81.46
56737;BME280;42618;51.226;4.910;2023-07-13T04:23:41;49581.47;;;-146.94;80.52
56737;BME280;42618;51.226;4.910;2023-07-13T04:26:09;49551.56;;;-146.94;81.20
56737;BME280;42618;51.226;4.910;2023-07-13T04:28:36;49589.44;;;-146.94;82.51
56737;BME280;42618;51.226;4.910;2023-07-13T04:31:03;49581.47;;;-146.94;82.90
56737;BME280;42618;51.226;4.910;2023-07-13T04:33:30;49579.47;;;-146.94;82.84
56737;BME280;42618;51.226;4.910;2023-07-13T04:35:57;49555.56;;;-146.94;83.17
56737;BME280;42618;51.226;4.910;2023-07-13T04:38:25;49579.47;;;-146.94;83.70
56737;BME280;42618;51.226;4.910;2023-07-13T04:40:58;49605.41;;;-146.94;83.69
56737;BME280;42618;51.226;4.910;2023-07-13T04:43:26;49575.50;;;-146.94;83.37
56737;BME280;42618;51.226;4.910;2023-07-13T04:45:54;49589.44;;;-146.94;83.32
56737;BME280;42618;51.226;4.910;2023-07-13T04:48:21;49593.44;;;-146.94;83.07
56737;BME280;42618;51.226;4.910;2023-07-13T04:50:55;49591.44;;;-146.94;84.43
56737;BME280;42618;51.226;4.910;2023-07-13T04:53:22;49575.50;;;-146.94;83.38
56737;BME280;42618;51.226;4.910;2023-07-13T04:55:49;49595.44;;;-146.94;83.98
56737;BME280;42618;51.226;4.910;2023-07-13T04:58:16;49571.50;;;-146.94;83.69
56737;BME280;42618;51.226;4.910;2023-07-13T05:00:43;49583.47;;;-146.94;82.75
56737;BME280;42618;51.226;4.910;2023-07-13T05:03:10;49555.56;;;-146.94;84.20
56737;BME280;42618;51.226;4.910;2023-07-13T05:05:37;49597.44;;;-146.94;83.13
56737;BME280;42618;51.226;4.910;2023-07-13T05:08:04;49589.44;;;-146.94;83.33
56737;BME280;42618;51.226;4.910;2023-07-13T05:10:31;49545.59;;;-146.94;82.63
56737;BME280;42618;51.226;4.910;2023-07-13T05:12:57;49549.59;;;-146.94;81.91
56737;BME280;42618;51.226;4.910;2023-07-13T05:15:24;49591.44;;;-146.94;83.55
56737;BME280;42618;51.226;4.910;2023-07-13T05:17:52;49569.50;;;-146.94;84.52
56737;BME280;42618;51.226;4.910;2023-07-13T05:20:19;49583.47;;;-146.94;83.71
56737;BME280;42618;51.226;4.910;2023-07-13T05:22:46;49565.53;;;-146.94;83.77
56737;BME280;42618;51.226;4.910;2023-07-13T05:25:17;49561.53;;;-146.94;83.08
56737;BME280;42618;51.226;4.910;2023-07-13T05:27:44;49553.56;;;-146.94;83.37
56737;BME280;42618;51.226;4.910;2023-07-13T05:30:13;49587.47;;;-146.94;81.81
56737;BME280;42618;51.226;4.910;2023-07-13T05:32:40;49587.47;;;-146.94;82.07
56737;BME280;42618;51.226;4.910;2023-07-13T05:35:07;49579.47;;;-146.94;82.32
56737;BME280;42618;51.226;4.910;2023-07-13T05:37:37;49603.41;;;-146.94;81.73
56737;BME280;42618;51.226;4.910;2023-07-13T05:40:04;49583.47;;;-146.94;82.74
56737;BME280;42618;51.226;4.910;2023-07-13T05:42:31;49559.56;;;-146.94;83.22
56737;BME280;42618;51.226;4.910;2023-07-13T05:44:58;49589.44;;;-146.94;82.49
56737;BME280;42618;51.226;4.910;2023-07-13T05:47:24;49571.50;;;-146.94;80.65
56737;BME280;42618;51.226;4.910;2023-07-13T05:49:51;49575.50;;;-146.94;81.30
56737;BME280;42618;51.226;4.910;2023-07-13T05:52:18;49583.47;;;-146.94;81.78
56737;BME280;42618;51.226;4.910;2023-07-13T05:54:45;49607.41;;;-146.94;80.72
56737;BME280;42618;51.226;4.910;2023-07-13T05:57:11;49589.44;;;-146.94;82.11
56737;BME280;42618;51.226;4.910;2023-07-13T05:59:38;49599.41;;;-146.94;81.82
56737;BME280;42618;51.226;4.910;2023-07-13T06:02:05;49605.41;;;-146.94;81.73
56737;BME280;42618;51.226;4.910;2023-07-13T06:04:32;49583.47;;;-146.94;80.64
56737;BME280;42618;51.226;4.910;2023-07-13T06:06:58;49579.47;;;-146.94;80.04
56737;BME280;42618;51.226;4.910;2023-07-13T06:09:26;49583.47;;;-146.94;80.32
56737;BME280;42618;51.226;4.910;2023-07-13T06:11:53;49591.44;;;-146.94;79.33
56737;BME280;42618;51.226;4.910;2023-07-13T06:14:20;49577.50;;;-146.94;79.94
56737;BME280;42618;51.226;4.910;2023-07-13T06:16:46;49551.56;;;-146.94;79.83
56737;BME280;42618;51.226;4.910;2023-07-13T06:19:13;49595.44;;;-146.94;79.56
56737;BME280;42618;51.226;4.910;2023-07-13T06:21:40;49587.47;;;-146.94;80.54
56737;BME280;42618;51.226;4.910;2023-07-13T06:24:07;49549.59;;;-146.94;80.77
56737;BME280;42618;51.226;4.910;2023-07-13T06:26:33;49571.50;;;-146.94;80.33
56737;BME280;42618;51.226;4.910;2023-07-13T06:29:00;49587.47;;;-146.94;79.98
56737;BME280;42618;51.226;4.910;2023-07-13T06:31:27;49585.47;;;-146.94;79.43
56737;BME280;42618;51.226;4.910;2023-07-13T06:33:54;49561.53;;;-146.94;79.40
56737;BME280;42618;51.226;4.910;2023-07-13T06:36:21;49551.56;;;-146.94;80.79
56737;BME280;42618;51.226;4.910;2023-07-13T06:38:47;49583.47;;;-146.94;80.69
56737;BME280;42618;51.226;4.910;2023-07-13T06:41:14;49553.56;;;-146.94;80.01
56737;BME280;42618;51.226;4.910;2023-07-13T06:43:41;49561.53;;;-146.94;79.44
56737;BME280;42618;51.226;4.910;2023-07-13T06:46:08;49563.53;;;-146.94;79.81
56737;BME280;42618;51.226;4.910;2023-07-13T06:48:36;49557.56;;;-146.94;79.88
56737;BME280;42618;51.226;4.910;2023-07-13T06:51:03;49531.63;;;-146.94;78.97
56737;BME280;42618;51.226;4.910;2023-07-13T06:53:30;49581.47;;;-146.94;80.79
56737;BME280;42618;51.226;4.910;2023-07-13T06:55:56;49593.44;;;-146.94;80.73
56737;BME280;42618;51.226;4.910;2023-07-13T06:58:23;49559.56;;;-146.94;80.38
56737;BME280;42618;51.226;4.910;2023-07-13T07:00:51;49535.63;;;-146.94;80.78
56737;BME280;42618;51.226;4.910;2023-07-13T07:03:19;49551.56;;;-146.94;81.17
56737;BME280;42618;51.226;4.910;2023-07-13T07:05:46;49599.41;;;-146.94;80.10
56737;BME280;42618;51.226;4.910;2023-07-13T07:08:13;49587.47;;;-146.94;79.64
56737;BME280;42618;51.226;4.910;2023-07-13T07:10:40;49579.47;;;-146.94;79.56
56737;BME280;42618;51.226;4.910;2023-07-13T07:13:07;49547.59;;;-146.94;79.70
56737;BME280;42618;51.226;4.910;2023-07-13T07:15:35;49543.59;;;-146.94;79.45
56737;BME280;42618;51.226;4.910;2023-07-13T07:18:02;49559.56;;;-146.94;79.33
56737;BME280;42618;51.226;4.910;2023-07-13T07:20:29;49583.47;;;-146.94;79.37
56737;BME280;42618;51.226;4.910;2023-07-13T07:22:57;49579.47;;;-146.94;78.88
56737;BME280;42618;51.226;4.910;2023-07-13T07:25:24;49555.56;;;-146.94;78.48
56737;BME280;42618;51.226;4.910;2023-07-13T07:27:51;49535.63;;;-146.94;77.93
56737;BME280;42618;51.226;4.910;2023-07-13T07:30:20;49603.41;;;-146.94;77.35
56737;BME280;42618;51.226;4.910;2023-07-13T07:32:50;49543.59;;;-146.94;76.30
56737;BME280;42618;51.226;4.910;2023-07-13T07:35:19;49575.50;;;-146.94;76.00
56737;BME280;42618;51.226;4.910;2023-07-13T07:37:46;49541.59;;;-146.94;75.88
56737;BME280;42618;51.226;4.910;2023-07-13T07:40:17;49571.50;;;-146.94;76.15
56737;BME280;42618;51.226;4.910;2023-07-13T07:42:47;49547.59;;;-146.94;75.24
56737;BME280;42618;51.226;4.910;2023-07-13T07:45:14;49555.56;;;-146.94;74.92
56737;BME280;42618;51.226;4.910;2023-07-13T07:47:41;49559.56;;;-146.94;73.62
56737;BME280;42618;51.226;4.910;2023-07-13T07:50:09;49535.63;;;-146.94;72.74
56737;BME280;42618;51.226;4.910;2023-07-13T07:52:36;49591.44;;;-146.94;71.72
56737;BME280;42618;51.226;4.910;2023-07-13T07:55:05;49579.47;;;-146.94;71.84
56737;BME280;42618;51.226;4.910;2023-07-13T07:57:35;49561.53;;;-146.94;70.32
56737;BME280;42618;51.226;4.910;2023-07-13T08:00:05;49557.56;;;-146.94;70.98
56737;BME280;42618;51.226;4.910;2023-07-13T08:02:40;49547.59;;;-146.94;71.11
56737;BME280;42618;51.226;4.910;2023-07-13T08:05:27;49543.59;;;-146.94;69.99
56737;BME280;42618;51.226;4.910;2023-07-13T08:07:57;49553.56;;;-146.94;68.69
56737;BME280;42618;51.226;4.910;2023-07-13T08:10:24;49547.59;;;-146.94;69.32
56737;BME280;42618;51.226;4.910;2023-07-13T08:12:51;49543.59;;;-146.94;69.43
56737;BME280;42618;51.226;4.910;2023-07-13T08:15:20;49535.63;;;-146.94;68.70
56737;BME280;42618;51.226;4.910;2023-07-13T08:17:48;49561.53;;;-146.94;67.65
56737;BME280;42618;51.226;4.910;2023-07-13T08:20:16;49561.53;;;-146.94;66.65
56737;BME280;42618;51.226;4.910;2023-07-13T08:22:42;49557.56;;;-146.94;66.44
56737;BME280;42618;51.226;4.910;2023-07-13T08:25:09;49543.59;;;-146.94;66.57
56737;BME280;42618;51.226;4.910;2023-07-13T08:27:36;49523.66;;;-146.94;66.49
56737;BME280;42618;51.226;4.910;2023-07-13T08:30:03;49539.63;;;-146.94;65.52
56737;BME280;42618;51.226;4.910;2023-07-13T08:32:30;49569.50;;;-146.94;68.03
56737;BME280;42618;51.226;4.910;2023-07-13T08:34:56;49561.53;;;-146.94;67.63
56737;BME280;42618;51.226;4.910;2023-07-13T08:37:23;49559.56;;;-146.94;66.68
56737;BME280;42618;51.226;4.910;2023-07-13T08:39:50;49541.59;;;-146.94;65.43
56737;BME280;42618;51.226;4.910;2023-07-13T08:42:37;49531.63;;;-146.94;63.52
56737;BME280;42618;51.226;4.910;2023-07-13T08:45:23;49519.69;;;-146.94;61.83
56737;BME280;42618;51.226;4.910;2023-07-13T08:48:02;49495.75;;;-146.94;61.03
56737;BME280;42618;51.226;4.910;2023-07-13T08:50:35;49523.66;;;-146.94;60.97
56737;BME280;42618;51.226;4.910;2023-07-13T08:53:30;49523.66;;;-146.94;58.99
56737;BME280;42618;51.226;4.910;2023-07-13T08:55:59;49527.66;;;-146.94;59.87
56737;BME280;42618;51.226;4.910;2023-07-13T08:58:26;49539.63;;;-146.94;60.64
56737;BME280;42618;51.226;4.910;2023-07-13T09:03:23;49557.56;;;-146.94;62.58
56737;BME280;42618;51.226;4.910;2023-07-13T09:05:54;49547.59;;;-146.94;61.65
56737;BME280;42618;51.226;4.910;2023-07-13T09:11:27;49545.59;;;-146.94;57.90
56737;BME280;42618;51.226;4.910;2023-07-13T09:14:15;49559.56;;;-146.94;57.14
56737;BME280;42618;51.226;4.910;2023-07-13T09:16:48;49519.69;;;-146.94;59.05
56737;BME280;42618;51.226;4.910;2023-07-13T09:19:23;49517.69;;;-146.94;57.02
56737;BME280;42618;51.226;4.910;2023-07-13T09:21:54;49523.66;;;-146.94;54.84
56737;BME280;42618;51.226;4.910;2023-07-13T09:24:46;49495.75;;;-146.94;53.15
56737;BME280;42618;51.226;4.910;2023-07-13T09:27:26;49539.63;;;-146.94;53.13
56737;BME280;42618;51.226;4.910;2023-07-13T09:30:17;49503.72;;;-146.94;52.82
56737;BME280;42618;51.226;4.910;2023-07-13T09:32:51;49491.78;;;-146.94;51.23
56737;BME280;42618;51.226;4.910;2023-07-13T09:35:21;49505.72;;;-146.94;53.85
56737;BME280;42618;51.226;4.910;2023-07-13T09:37:49;49551.56;;;-146.94;54.53
56737;BME280;42618;51.226;4.910;2023-07-13T09:40:38;49537.63;;;-146.94;53.86
56737;BME280;42618;51.226;4.910;2023-07-13T09:43:09;49531.63;;;-146.94;55.29
56737;BME280;42618;51.226;4.910;2023-07-13T09:45:38;49541.59;;;-146.94;60.45
56737;BME280;42618;51.226;4.910;2023-07-13T09:48:11;49559.56;;;-146.94;63.12
56737;BME280;42618;51.226;4.910;2023-07-13T09:50:40;49585.47;;;-146.94;65.07
56737;BME280;42618;51.226;4.910;2023-07-13T09:53:16;49535.63;;;-146.94;61.86
56737;BME280;42618;51.226;4.910;2023-07-13T09:55:46;49515.69;;;-146.94;59.40
56737;BME280;42618;51.226;4.910;2023-07-13T09:58:22;49551.56;;;-146.94;61.21
56737;BME280;42618;51.226;4.910;2023-07-13T10:00:59;49559.56;;;-146.94;60.06
56737;BME280;42618;51.226;4.910;2023-07-13T10:03:28;49491.78;;;-146.94;56.72
56737;BME280;42618;51.226;4.910;2023-07-13T10:06:22;49495.75;;;-146.94;55.54
56737;BME280;42618;51.226;4.910;2023-07-13T10:08:52;49483.81;;;-146.94;52.51
56737;BME280;42618;51.226;4.910;2023-07-13T10:11:25;49483.81;;;-146.94;50.57
56737;BME280;42618;51.226;4.910;2023-07-13T10:13:58;49499.75;;;-146.94;49.93
56737;BME280;42618;51.226;4.910;2023-07-13T10:16:28;49463.88;;;-146.94;49.74
56737;BME280;42618;51.226;4.910;2023-07-13T10:19:16;49485.78;;;-146.94;51.40
56737;BME280;42618;51.226;4.910;2023-07-13T10:21:53;49515.69;;;-146.94;47.95
56737;BME280;42618;51.226;4.910;2023-07-13T10:24:30;49543.59;;;-146.94;50.54
56737;BME280;42618;51.226;4.910;2023-07-13T10:29:36;49519.69;;;-146.94;48.65
56737;BME280;42618;51.226;4.910;2023-07-13T10:32:09;49507.72;;;-146.94;49.81
56737;BME280;42618;51.226;4.910;2023-07-13T10:34:39;49513.69;;;-146.94;51.75
56737;BME280;42618;51.226;4.910;2023-07-13T10:37:16;49527.66;;;-146.94;52.90
56737;BME280;42618;51.226;4.910;2023-07-13T10:39:45;49511.72;;;-146.94;52.77
56737;BME280;42618;51.226;4.910;2023-07-13T10:42:24;49541.59;;;-146.94;52.73
56737;BME280;42618;51.226;4.910;2023-07-13T10:44:53;49519.69;;;-146.94;52.40
56737;BME280;42618;51.226;4.910;2023-07-13T10:47:20;49483.81;;;-146.94;54.91
56737;BME280;42618;51.226;4.910;2023-07-13T10:49:50;49485.78;;;-146.94;59.17
56737;BME280;42618;51.226;4.910;2023-07-13T10:52:40;49505.72;;;-146.94;58.75
56737;BME280;42618;51.226;4.910;2023-07-13T10:58:02;49555.56;;;-146.94;65.67
56737;BME280;42618;51.226;4.910;2023-07-13T11:00:31;49557.56;;;-146.94;71.78
56737;BME280;42618;51.226;4.910;2023-07-13T11:03:00;49563.53;;;-146.94;73.74
56737;BME280;42618;51.226;4.910;2023-07-13T11:05:32;49555.56;;;-146.94;76.09
56737;BME280;42618;51.226;4.910;2023-07-13T11:08:16;49575.50;;;-146.94;78.67
56737;BME280;42618;51.226;4.910;2023-07-13T11:10:53;49519.69;;;-146.94;80.11
56737;BME280;42618;51.226;4.910;2023-07-13T11:16:37;49507.72;;;-146.94;76.24
56737;BME280;42618;51.226;4.910;2023-07-13T11:19:25;49521.69;;;-146.94;76.96
56737;BME280;42618;51.226;4.910;2023-07-13T11:24:53;49515.69;;;-146.94;75.74
56737;BME280;42618;51.226;4.910;2023-07-13T11:38:16;49503.72;;;-146.94;60.69
56737;BME280;42618;51.226;4.910;2023-07-13T11:40:45;49483.81;;;-146.94;57.94
56737;BME280;42618;51.226;4.910;2023-07-13T11:43:22;49467.84;;;-146.94;54.42
56737;BME280;42618;51.226;4.910;2023-07-13T11:45:52;49459.88;;;-146.94;54.46
56737;BME280;42618;51.226;4.910;2023-07-13T11:48:28;49531.63;;;-146.94;55.04
56737;BME280;42618;51.226;4.910;2023-07-13T11:51:04;49511.72;;;-146.94;58.80
56737;BME280;42618;51.226;4.910;2023-07-13T11:53:45;49517.69;;;-146.94;58.67
56737;BME280;42618;51.226;4.910;2023-07-13T11:56:12;49507.72;;;-146.94;59.42
56737;BME280;42618;51.226;4.910;2023-07-13T11:58:40;49527.66;;;-146.94;58.20
56737;BME280;42618;51.226;4.910;2023-07-13T12:01:18;49511.72;;;-146.94;57.73
56737;BME280;42618;51.226;4.910;2023-07-13T12:03:46;49501.75;;;-146.94;60.15
56737;BME280;42618;51.226;4.910;2023-07-13T12:06:25;49515.69;;;-146.94;61.52
56737;BME280;42618;51.226;4.910;2023-07-13T12:09:01;49527.66;;;-146.94;63.11
56737;BME280;42618;51.226;4.910;2023-07-13T12:11:30;49563.53;;;-146.94;64.41
56737;BME280;42618;51.226;4.910;2023-07-13T12:13:57;49561.53;;;-146.94;66.26
56737;BME280;42618;51.226;4.910;2023-07-13T12:16:27;49503.72;;;-146.94;65.36
56737;BME280;42618;51.226;4.910;2023-07-13T12:18:56;49563.53;;;-146.94;64.94
56737;BME280;42618;51.226;4.910;2023-07-13T12:21:31;49571.50;;;-146.94;67.11
56737;BME280;42618;51.226;4.910;2023-07-13T12:23:59;49569.50;;;-146.94;73.00
56737;BME280;42618;51.226;4.910;2023-07-13T12:26:29;49567.53;;;-146.94;75.42
56737;BME280;42618;51.226;4.910;2023-07-13T12:29:00;49589.44;;;-146.94;77.75
56737;BME280;42618;51.226;4.910;2023-07-13T12:31:37;49565.53;;;-146.94;79.41
56737;BME280;42618;51.226;4.910;2023-07-13T12:36:53;49571.50;;;-146.94;82.12
56737;BME280;42618;51.226;4.910;2023-07-13T12:39:35;49565.53;;;-146.94;84.10
56737;BME280;42618;51.226;4.910;2023-07-13T12:42:27;49595.44;;;-146.94;84.34
56737;BME280;42618;51.226;4.910;2023-07-13T12:44:58;49599.41;;;-146.94;84.35
56737;BME280;42618;51.226;4.910;2023-07-13T12:47:27;49543.59;;;-146.94;84.76
56737;BME280;42618;51.226;4.910;2023-07-13T12:49:55;49557.56;;;-146.94;86.78
56737;BME280;42618;51.226;4.910;2023-07-13T12:52:32;49563.53;;;-146.94;86.05
56737;BME280;42618;51.226;4.910;2023-07-13T12:55:20;49567.53;;;-146.94;86.77
56737;BME280;42618;51.226;4.910;2023-07-13T12:57:53;49537.63;;;-146.94;87.95
56737;BME280;42618;51.226;4.910;2023-07-13T13:00:30;49575.50;;;-146.94;89.78
56737;BME280;42618;51.226;4.910;2023-07-13T13:03:20;49545.59;;;-146.94;90.47
56737;BME280;42618;51.226;4.910;2023-07-13T13:06:20;49559.56;;;-146.94;90.97
56737;BME280;42618;51.226;4.910;2023-07-13T13:08:52;49571.50;;;-146.94;91.58
56737;BME280;42618;51.226;4.910;2023-07-13T13:11:20;49569.50;;;-146.94;91.66
56737;BME280;42618;51.226;4.910;2023-07-13T13:13:47;49567.53;;;-146.94;92.07
56737;BME280;42618;51.226;4.910;2023-07-13T13:16:20;49571.50;;;-146.94;91.65
56737;BME280;42618;51.226;4.910;2023-07-13T13:18:53;49547.59;;;-146.94;91.46
56737;BME280;42618;51.226;4.910;2023-07-13T13:21:20;49547.59;;;-146.94;91.26
56737;BME280;42618;51.226;4.910;2023-07-13T13:23:47;49559.56;;;-146.94;91.00
56737;BME280;42618;51.226;4.910;2023-07-13T13:26:15;49555.56;;;-146.94;91.68